sensor_id;sensor_type;location;lat;lon;timestamp;P1;durP1;ratioP1;P2;durP2;ratioP2
9807;SDS011;4943;52.550;13.462;2024-01-27T00:01:30;55.13;;;37.13;;
9807;SDS011;4943;52.550;13.462;2024-01-27T00:03:58;54.53;;;36.33;;
9807;SDS011;4943;52.550;13.462;2024-01-27T00:06:26;54.10;;;36.13;;
9807;SDS011;4943;52.550;13.462;2024-01-27T00:08:54;54.43;;;36.27;;
9807;SDS011;4943;52.550;13.462;2024-01-27T00:11:24;54.40;;;36.47;;
9807;SDS011;4943;52.550;13.462;2024-01-27T00:13:53;55.37;;;36.90;;
9807;SDS011;4943;52.550;13.462;2024-01-27T00:16:21;54.70;;;36.70;;
9807;SDS011;4943;52.550;13.462;2024-01-27T00:18:49;55.10;;;37.10;;
9807;SDS011;4943;52.550;13.462;2024-01-27T00:21:17;54.50;;;36.43;;
9807;SDS011;4943;52.550;13.462;2024-01-27T00:23:45;55.33;;;36.83;;
9807;SDS011;4943;52.550;13.462;2024-01-27T00:26:14;54.17;;;36.40;;
9807;SDS011;4943;52.550;13.462;2024-01-27T00:28:43;54.83;;;36.70;;
9807;SDS011;4943;52.550;13.462;2024-01-27T00:31:11;54.27;;;36.73;;
9807;SDS011;4943;52.550;13.462;2024-01-27T00:33:39;54.07;;;36.43;;
9807;SDS011;4943;52.550;13.462;2024-01-27T00:36:07;54.00;;;36.20;;
9807;SDS011;4943;52.550;13.462;2024-01-27T00:38:35;54.07;;;36.30;;
9807;SDS011;4943;52.550;13.462;2024-01-27T00:41:05;54.13;;;36.17;;
9807;SDS011;4943;52.550;13.462;2024-01-27T00:43:33;54.07;;;36.30;;
9807;SDS011;4943;52.550;13.462;2024-01-27T00:46:02;53.97;;;36.03;;
9807;SDS011;4943;52.550;13.462;2024-01-27T00:48:30;54.40;;;36.63;;
9807;SDS011;4943;52.550;13.462;2024-01-27T00:50:58;54.17;;;36.67;;
9807;SDS011;4943;52.550;13.462;2024-01-27T00:53:26;54.20;;;36.53;;
9807;SDS011;4943;52.550;13.462;2024-01-27T00:55:54;53.80;;;36.17;;
9807;SDS011;4943;52.550;13.462;2024-01-27T00:58:22;54.00;;;36.50;;
9807;SDS011;4943;52.550;13.462;2024-01-27T01:00:51;54.53;;;36.47;;
9807;SDS011;4943;52.550;13.462;2024-01-27T01:03:20;55.13;;;36.53;;
9807;SDS011;4943;52.550;13.462;2024-01-27T01:05:48;54.03;;;36.27;;
9807;SDS011;4943;52.550;13.462;2024-01-27T01:08:17;54.13;;;36.23;;
9807;SDS011;4943;52.550;13.462;2024-01-27T01:10:45;54.13;;;36.40;;
9807;SDS011;4943;52.550;13.462;2024-01-27T01:13:13;54.50;;;36.67;;
9807;SDS011;4943;52.550;13.462;2024-01-27T01:15:41;54.70;;;37.00;;
9807;SDS011;4943;52.550;13.462;2024-01-27T01:18:09;54.43;;;36.50;;
9807;SDS011;4943;52.550;13.462;2024-01-27T01:20:39;53.93;;;36.10;;
9807;SDS011;4943;52.550;13.462;2024-01-27T01:23:07;54.50;;;36.47;;
9807;SDS011;4943;52.550;13.462;2024-01-27T01:25:35;53.93;;;36.10;;
9807;SDS011;4943;52.550;13.462;2024-01-27T01:28:03;54.27;;;36.63;;
9807;SDS011;4943;52.550;13.462;2024-01-27T01:30:31;54.23;;;36.33;;
9807;SDS011;4943;52.550;13.462;2024-01-27T01:33:00;53.90;;;36.40;;
9807;SDS011;4943;52.550;13.462;2024-01-27T01:35:29;54.03;;;36.20;;
9807;SDS011;4943;52.550;13.462;2024-01-27T01:37:58;54.23;;;36.60;;
9807;SDS011;4943;52.550;13.462;2024-01-27T01:40:26;53.53;;;36.10;;
9807;SDS011;4943;52.550;13.462;2024-01-27T01:42:54;53.13;;;35.67;;
9807;SDS011;4943;52.550;13.462;2024-01-27T01:45:22;53.37;;;35.90;;
9807;SDS011;4943;52.550;13.462;2024-01-27T01:47:50;53.67;;;36.40;;
9807;SDS011;4943;52.550;13.462;2024-01-27T01:50:18;53.43;;;36.03;;
9807;SDS011;4943;52.550;13.462;2024-01-27T01:52:47;53.67;;;36.10;;
9807;SDS011;4943;52.550;13.462;2024-01-27T01:55:17;52.87;;;35.60;;
9807;SDS011;4943;52.550;13.462;2024-01-27T01:57:46;54.20;;;36.20;;
9807;SDS011;4943;52.550;13.462;2024-01-27T02:00:15;53.60;;;35.97;;
9807;SDS011;4943;52.550;13.462;2024-01-27T02:02:44;53.67;;;35.87;;
9807;SDS011;4943;52.550;13.462;2024-01-27T02:05:12;53.97;;;36.37;;
9807;SDS011;4943;52.550;13.462;2024-01-27T02:07:40;53.80;;;36.13;;
9807;SDS011;4943;52.550;13.462;2024-01-27T02:10:12;53.33;;;35.80;;
9807;SDS011;4943;52.550;13.462;2024-01-27T02:12:43;53.83;;;36.20;;
9807;SDS011;4943;52.550;13.462;2024-01-27T02:15:13;54.13;;;36.37;;
9807;SDS011;4943;52.550;13.462;2024-01-27T02:17:41;54.10;;;36.47;;
9807;SDS011;4943;52.550;13.462;2024-01-27T02:20:10;53.93;;;36.33;;
9807;SDS011;4943;52.550;13.462;2024-01-27T02:22:38;54.30;;;36.53;;
9807;SDS011;4943;52.550;13.462;2024-01-27T02:25:07;54.20;;;36.37;;
9807;SDS011;4943;52.550;13.462;2024-01-27T02:27:36;54.30;;;36.47;;
9807;SDS011;4943;52.550;13.462;2024-01-27T02:30:04;53.87;;;36.17;;
9807;SDS011;4943;52.550;13.462;2024-01-27T02:32:33;54.33;;;36.33;;
9807;SDS011;4943;52.550;13.462;2024-01-27T02:35:01;54.03;;;36.13;;
9807;SDS011;4943;52.550;13.462;2024-01-27T02:37:29;54.17;;;36.23;;
9807;SDS011;4943;52.550;13.462;2024-01-27T02:39:57;54.60;;;36.60;;
9807;SDS011;4943;52.550;13.462;2024-01-27T02:42:27;54.30;;;36.40;;
9807;SDS011;4943;52.550;13.462;2024-01-27T02:44:55;53.90;;;36.10;;
9807;SDS011;4943;52.550;13.462;2024-01-27T02:47:25;54.47;;;36.50;;
9807;SDS011;4943;52.550;13.462;2024-01-27T02:49:53;54.17;;;36.23;;
9807;SDS011;4943;52.550;13.462;2024-01-27T02:52:21;54.20;;;36.30;;
9807;SDS011;4943;52.550;13.462;2024-01-27T02:54:49;55.63;;;36.87;;
9807;SDS011;4943;52.550;13.462;2024-01-27T02:57:18;57.77;;;38.07;;
9807;SDS011;4943;52.550;13.462;2024-01-27T02:59:47;54.70;;;36.87;;
9807;SDS011;4943;52.550;13.462;2024-01-27T03:02:18;54.40;;;36.47;;
9807;SDS011;4943;52.550;13.462;2024-01-27T03:04:46;54.50;;;36.50;;
9807;SDS011;4943;52.550;13.462;2024-01-27T03:07:14;54.03;;;36.20;;
9807;SDS011;4943;52.550;13.462;2024-01-27T03:09:42;54.70;;;36.57;;
9807;SDS011;4943;52.550;13.462;2024-01-27T03:12:10;54.30;;;36.37;;
9807;SDS011;4943;52.550;13.462;2024-01-27T03:14:38;54.77;;;36.83;;
9807;SDS011;4943;52.550;13.462;2024-01-27T03:17:08;54.50;;;36.43;;
9807;SDS011;4943;52.550;13.462;2024-01-27T03:19:36;54.73;;;36.93;;
9807;SDS011;4943;52.550;13.462;2024-01-27T03:22:04;54.63;;;36.67;;
9807;SDS011;4943;52.550;13.462;2024-01-27T03:24:32;54.77;;;36.70;;
9807;SDS011;4943;52.550;13.462;2024-01-27T03:27:01;54.40;;;36.43;;
9807;SDS011;4943;52.550;13.462;2024-01-27T03:29:29;54.33;;;36.33;;
9807;SDS011;4943;52.550;13.462;2024-01-27T03:31:57;54.43;;;36.60;;
9807;SDS011;4943;52.550;13.462;2024-01-27T03:34:26;54.10;;;36.37;;
9807;SDS011;4943;52.550;13.462;2024-01-27T03:36:55;54.50;;;36.57;;
9807;SDS011;4943;52.550;13.462;2024-01-27T03:39:23;54.17;;;36.27;;
9807;SDS011;4943;52.550;13.462;2024-01-27T03:41:51;53.80;;;36.37;;
9807;SDS011;4943;52.550;13.462;2024-01-27T03:44:19;54.00;;;36.37;;
9807;SDS011;4943;52.550;13.462;2024-01-27T03:46:47;53.37;;;35.87;;
9807;SDS011;4943;52.550;13.462;2024-01-27T03:49:17;53.40;;;36.03;;
9807;SDS011;4943;52.550;13.462;2024-01-27T03:51:47;53.53;;;36.03;;
9807;SDS011;4943;52.550;13.462;2024-01-27T03:54:15;53.43;;;36.13;;
9807;SDS011;4943;52.550;13.462;2024-01-27T03:56:43;52.60;;;35.50;;
9807;SDS011;4943;52.550;13.462;2024-01-27T03:59:11;52.40;;;35.27;;
9807;SDS011;4943;52.550;13.462;2024-01-27T04:01:39;52.80;;;35.40;;
9807;SDS011;4943;52.550;13.462;2024-01-27T04:04:07;53.17;;;36.13;;
9807;SDS011;4943;52.550;13.462;2024-01-27T04:06:38;52.63;;;35.33;;
9807;SDS011;4943;52.550;13.462;2024-01-27T04:09:09;52.63;;;35.70;;
9807;SDS011;4943;52.550;13.462;2024-01-27T04:11:37;52.50;;;35.50;;
9807;SDS011;4943;52.550;13.462;2024-01-27T04:14:06;52.13;;;35.13;;
9807;SDS011;4943;52.550;13.462;2024-01-27T04:16:34;51.83;;;35.10;;
9807;SDS011;4943;52.550;13.462;2024-01-27T04:19:04;51.40;;;34.87;;
9807;SDS011;4943;52.550;13.462;2024-01-27T04:21:32;51.47;;;34.67;;
9807;SDS011;4943;52.550;13.462;2024-01-27T04:24:00;51.63;;;35.03;;
9807;SDS011;4943;52.550;13.462;2024-01-27T04:26:29;51.40;;;34.63;;
9807;SDS011;4943;52.550;13.462;2024-01-27T04:28:57;51.53;;;34.90;;
9807;SDS011;4943;52.550;13.462;2024-01-27T04:31:25;50.67;;;34.23;;
9807;SDS011;4943;52.550;13.462;2024-01-27T04:33:55;51.47;;;34.73;;
9807;SDS011;4943;52.550;13.462;2024-01-27T04:36:26;51.20;;;34.63;;
9807;SDS011;4943;52.550;13.462;2024-01-27T04:38:56;50.43;;;34.07;;
9807;SDS011;4943;52.550;13.462;2024-01-27T04:41:24;51.73;;;34.97;;
9807;SDS011;4943;52.550;13.462;2024-01-27T04:43:53;52.00;;;35.10;;
9807;SDS011;4943;52.550;13.462;2024-01-27T04:46:22;51.13;;;34.50;;
9807;SDS011;4943;52.550;13.462;2024-01-27T04:48:50;51.63;;;34.83;;
9807;SDS011;4943;52.550;13.462;2024-01-27T04:51:19;51.53;;;34.73;;
9807;SDS011;4943;52.550;13.462;2024-01-27T04:53:47;51.73;;;34.97;;
9807;SDS011;4943;52.550;13.462;2024-01-27T04:56:15;51.67;;;34.80;;
9807;SDS011;4943;52.550;13.462;2024-01-27T04:58:43;51.80;;;34.90;;
9807;SDS011;4943;52.550;13.462;2024-01-27T05:01:12;51.93;;;35.23;;
9807;SDS011;4943;52.550;13.462;2024-01-27T05:03:40;52.10;;;35.27;;
9807;SDS011;4943;52.550;13.462;2024-01-27T05:06:09;52.20;;;35.33;;
9807;SDS011;4943;52.550;13.462;2024-01-27T05:08:37;51.83;;;35.03;;
9807;SDS011;4943;52.550;13.462;2024-01-27T05:11:06;51.73;;;35.00;;
9807;SDS011;4943;52.550;13.462;2024-01-27T05:13:34;51.43;;;34.80;;
9807;SDS011;4943;52.550;13.462;2024-01-27T05:16:04;51.90;;;35.10;;
9807;SDS011;4943;52.550;13.462;2024-01-27T05:18:33;51.90;;;35.07;;
9807;SDS011;4943;52.550;13.462;2024-01-27T05:21:02;51.80;;;35.13;;
9807;SDS011;4943;52.550;13.462;2024-01-27T05:23:30;52.00;;;35.20;;
9807;SDS011;4943;52.550;13.462;2024-01-27T05:25:58;51.97;;;35.53;;
9807;SDS011;4943;52.550;13.462;2024-01-27T05:28:26;51.63;;;34.97;;
9807;SDS011;4943;52.550;13.462;2024-01-27T05:30:54;52.00;;;35.23;;
9807;SDS011;4943;52.550;13.462;2024-01-27T05:33:22;51.93;;;35.43;;
9807;SDS011;4943;52.550;13.462;2024-01-27T05:35:52;52.00;;;35.23;;
9807;SDS011;4943;52.550;13.462;2024-01-27T05:38:20;52.27;;;35.07;;
9807;SDS011;4943;52.550;13.462;2024-01-27T05:40:48;52.17;;;35.37;;
9807;SDS011;4943;52.550;13.462;2024-01-27T05:43:17;51.57;;;34.90;;
9807;SDS011;4943;52.550;13.462;2024-01-27T05:45:45;51.77;;;35.27;;
9807;SDS011;4943;52.550;13.462;2024-01-27T05:48:13;52.03;;;35.03;;
9807;SDS011;4943;52.550;13.462;2024-01-27T05:50:42;51.50;;;34.93;;
9807;SDS011;4943;52.550;13.462;2024-01-27T05:53:12;52.43;;;34.83;;
9807;SDS011;4943;52.550;13.462;2024-01-27T05:55:40;51.53;;;34.87;;
9807;SDS011;4943;52.550;13.462;2024-01-27T05:58:08;50.63;;;34.17;;
9807;SDS011;4943;52.550;13.462;2024-01-27T06:00:36;51.93;;;35.07;;
9807;SDS011;4943;52.550;13.462;2024-01-27T06:03:04;51.53;;;34.87;;
9807;SDS011;4943;52.550;13.462;2024-01-27T06:05:32;51.77;;;34.97;;
9807;SDS011;4943;52.550;13.462;2024-01-27T06:08:00;52.23;;;35.33;;
9807;SDS011;4943;52.550;13.462;2024-01-27T06:10:29;51.53;;;34.87;;
9807;SDS011;4943;52.550;13.462;2024-01-27T06:12:58;52.33;;;35.30;;
9807;SDS011;4943;52.550;13.462;2024-01-27T06:15:26;52.20;;;35.37;;
9807;SDS011;4943;52.550;13.462;2024-01-27T06:17:54;52.63;;;35.47;;
9807;SDS011;4943;52.550;13.462;2024-01-27T06:20:22;51.53;;;35.00;;
9807;SDS011;4943;52.550;13.462;2024-01-27T06:22:50;52.10;;;35.13;;
9807;SDS011;4943;52.550;13.462;2024-01-27T06:25:20;51.53;;;34.83;;
9807;SDS011;4943;52.550;13.462;2024-01-27T06:27:49;52.43;;;35.73;;
9807;SDS011;4943;52.550;13.462;2024-01-27T06:30:17;52.53;;;35.60;;
9807;SDS011;4943;52.550;13.462;2024-01-27T06:32:46;52.47;;;35.40;;
9807;SDS011;4943;52.550;13.462;2024-01-27T06:35:15;52.33;;;35.43;;
9807;SDS011;4943;52.550;13.462;2024-01-27T06:37:43;51.73;;;34.93;;
9807;SDS011;4943;52.550;13.462;2024-01-27T06:40:11;52.00;;;35.43;;
9807;SDS011;4943;52.550;13.462;2024-01-27T06:42:41;52.30;;;35.70;;
9807;SDS011;4943;52.550;13.462;2024-01-27T06:45:11;51.87;;;34.90;;
9807;SDS011;4943;52.550;13.462;2024-01-27T06:47:39;52.27;;;35.37;;
9807;SDS011;4943;52.550;13.462;2024-01-27T06:50:08;52.27;;;35.63;;
9807;SDS011;4943;52.550;13.462;2024-01-27T06:52:36;52.57;;;35.73;;
9807;SDS011;4943;52.550;13.462;2024-01-27T06:55:05;52.33;;;35.40;;
9807;SDS011;4943;52.550;13.462;2024-01-27T06:57:33;52.60;;;35.50;;
9807;SDS011;4943;52.550;13.462;2024-01-27T07:00:01;53.20;;;36.10;;
9807;SDS011;4943;52.550;13.462;2024-01-27T07:02:31;53.17;;;36.13;;
9807;SDS011;4943;52.550;13.462;2024-01-27T07:04:59;52.83;;;35.57;;
9807;SDS011;4943;52.550;13.462;2024-01-27T07:07:28;52.33;;;35.33;;
9807;SDS011;4943;52.550;13.462;2024-01-27T07:09:57;52.80;;;35.70;;
9807;SDS011;4943;52.550;13.462;2024-01-27T07:12:25;52.97;;;35.63;;
9807;SDS011;4943;52.550;13.462;2024-01-27T07:14:53;52.63;;;35.73;;
9807;SDS011;4943;52.550;13.462;2024-01-27T07:17:23;53.20;;;35.77;;
9807;SDS011;4943;52.550;13.462;2024-01-27T07:19:53;52.93;;;35.63;;
9807;SDS011;4943;52.550;13.462;2024-01-27T07:22:22;52.90;;;36.10;;
9807;SDS011;4943;52.550;13.462;2024-01-27T07:24:51;51.83;;;35.27;;
9807;SDS011;4943;52.550;13.462;2024-01-27T07:27:19;53.00;;;35.93;;
9807;SDS011;4943;52.550;13.462;2024-01-27T07:29:47;52.70;;;35.60;;
9807;SDS011;4943;52.550;13.462;2024-01-27T07:32:15;53.67;;;37.60;;
9807;SDS011;4943;52.550;13.462;2024-01-27T07:34:43;53.17;;;36.23;;
9807;SDS011;4943;52.550;13.462;2024-01-27T07:37:13;53.13;;;36.10;;
9807;SDS011;4943;52.550;13.462;2024-01-27T07:39:41;53.00;;;35.83;;
9807;SDS011;4943;52.550;13.462;2024-01-27T07:42:09;52.97;;;36.07;;
9807;SDS011;4943;52.550;13.462;2024-01-27T07:44:37;52.17;;;35.40;;
9807;SDS011;4943;52.550;13.462;2024-01-27T07:47:05;52.87;;;35.80;;
9807;SDS011;4943;52.550;13.462;2024-01-27T07:49:33;52.87;;;35.57;;
9807;SDS011;4943;52.550;13.462;2024-01-27T07:52:03;53.33;;;35.97;;
9807;SDS011;4943;52.550;13.462;2024-01-27T07:54:33;53.43;;;36.33;;
9807;SDS011;4943;52.550;13.462;2024-01-27T07:57:05;53.43;;;36.50;;
9807;SDS011;4943;52.550;13.462;2024-01-27T07:59:33;53.80;;;36.37;;
9807;SDS011;4943;52.550;13.462;2024-01-27T08:02:01;53.77;;;36.47;;
9807;SDS011;4943;52.550;13.462;2024-01-27T08:04:30;52.87;;;35.83;;
9807;SDS011;4943;52.550;13.462;2024-01-27T08:06:58;53.43;;;36.17;;
9807;SDS011;4943;52.550;13.462;2024-01-27T08:09:33;52.77;;;35.57;;
9807;SDS011;4943;52.550;13.462;2024-01-27T08:12:02;53.50;;;36.37;;
9807;SDS011;4943;52.550;13.462;2024-01-27T08:14:30;53.83;;;36.73;;
9807;SDS011;4943;52.550;13.462;2024-01-27T08:16:59;53.90;;;36.30;;
9807;SDS011;4943;52.550;13.462;2024-01-27T08:19:27;54.07;;;36.60;;
9807;SDS011;4943;52.550;13.462;2024-01-27T08:21:55;53.73;;;36.63;;
9807;SDS011;4943;52.550;13.462;2024-01-27T08:24:23;53.57;;;35.97;;
9807;SDS011;4943;52.550;13.462;2024-01-27T08:26:53;54.10;;;36.60;;
9807;SDS011;4943;52.550;13.462;2024-01-27T08:29:21;53.93;;;36.33;;
9807;SDS011;4943;52.550;13.462;2024-01-27T08:31:49;53.70;;;36.07;;
9807;SDS011;4943;52.550;13.462;2024-01-27T08:34:17;54.03;;;36.07;;
9807;SDS011;4943;52.550;13.462;2024-01-27T08:36:45;54.50;;;36.90;;
9807;SDS011;4943;52.550;13.462;2024-01-27T08:39:14;54.27;;;36.77;;
9807;SDS011;4943;52.550;13.462;2024-01-27T08:41:42;53.97;;;36.07;;
9807;SDS011;4943;52.550;13.462;2024-01-27T08:44:12;54.37;;;36.93;;
9807;SDS011;4943;52.550;13.462;2024-01-27T08:46:40;53.97;;;36.20;;
9807;SDS011;4943;52.550;13.462;2024-01-27T08:49:08;54.57;;;36.80;;
9807;SDS011;4943;52.550;13.462;2024-01-27T08:51:36;54.80;;;37.43;;
9807;SDS011;4943;52.550;13.462;2024-01-27T08:54:04;54.67;;;36.93;;
9807;SDS011;4943;52.550;13.462;2024-01-27T08:56:32;55.07;;;37.20;;
9807;SDS011;4943;52.550;13.462;2024-01-27T08:59:00;54.33;;;36.80;;
9807;SDS011;4943;52.550;13.462;2024-01-27T09:01:30;53.70;;;36.10;;
9807;SDS011;4943;52.550;13.462;2024-01-27T09:03:58;55.57;;;37.77;;
9807;SDS011;4943;52.550;13.462;2024-01-27T09:06:27;55.27;;;37.27;;
9807;SDS011;4943;52.550;13.462;2024-01-27T09:08:57;55.30;;;37.40;;
9807;SDS011;4943;52.550;13.462;2024-01-27T09:11:25;55.27;;;37.03;;
9807;SDS011;4943;52.550;13.462;2024-01-27T09:13:56;54.17;;;36.13;;
9807;SDS011;4943;52.550;13.462;2024-01-27T09:16:24;55.20;;;36.80;;
9807;SDS011;4943;52.550;13.462;2024-01-27T09:18:54;55.17;;;37.10;;
9807;SDS011;4943;52.550;13.462;2024-01-27T09:21:22;54.93;;;36.80;;
9807;SDS011;4943;52.550;13.462;2024-01-27T09:23:55;54.77;;;36.57;;
9807;SDS011;4943;52.550;13.462;2024-01-27T09:26:23;54.63;;;36.90;;
9807;SDS011;4943;52.550;13.462;2024-01-27T09:28:51;55.00;;;36.90;;
9807;SDS011;4943;52.550;13.462;2024-01-27T09:31:21;55.43;;;37.43;;
9807;SDS011;4943;52.550;13.462;2024-01-27T09:33:51;55.57;;;37.30;;
9807;SDS011;4943;52.550;13.462;2024-01-27T09:36:22;55.50;;;37.23;;
9807;SDS011;4943;52.550;13.462;2024-01-27T09:38:51;55.93;;;37.37;;
9807;SDS011;4943;52.550;13.462;2024-01-27T09:41:20;56.10;;;37.23;;
9807;SDS011;4943;52.550;13.462;2024-01-27T09:43:49;55.63;;;37.03;;
9807;SDS011;4943;52.550;13.462;2024-01-27T09:46:17;55.93;;;37.37;;
9807;SDS011;4943;52.550;13.462;2024-01-27T09:48:46;55.63;;;37.13;;
9807;SDS011;4943;52.550;13.462;2024-01-27T09:51:14;56.27;;;38.20;;
9807;SDS011;4943;52.550;13.462;2024-01-27T09:53:44;56.33;;;37.70;;
9807;SDS011;4943;52.550;13.462;2024-01-27T09:56:12;55.80;;;37.07;;
9807;SDS011;4943;52.550;13.462;2024-01-27T09:58:44;55.90;;;37.37;;
9807;SDS011;4943;52.550;13.462;2024-01-27T10:01:12;55.93;;;37.33;;
9807;SDS011;4943;52.550;13.462;2024-01-27T10:03:45;55.67;;;36.97;;
9807;SDS011;4943;52.550;13.462;2024-01-27T10:06:14;56.17;;;37.23;;
9807;SDS011;4943;52.550;13.462;2024-01-27T10:08:44;56.80;;;37.93;;
9807;SDS011;4943;52.550;13.462;2024-01-27T10:11:20;57.43;;;38.07;;
9807;SDS011;4943;52.550;13.462;2024-01-27T10:13:53;56.53;;;37.53;;
9807;SDS011;4943;52.550;13.462;2024-01-27T10:16:25;57.00;;;37.80;;
9807;SDS011;4943;52.550;13.462;2024-01-27T10:19:00;60.00;;;39.53;;
9807;SDS011;4943;52.550;13.462;2024-01-27T10:21:29;59.53;;;38.53;;
9807;SDS011;4943;52.550;13.462;2024-01-27T10:23:59;60.83;;;39.53;;
9807;SDS011;4943;52.550;13.462;2024-01-27T10:26:30;60.77;;;39.13;;
9807;SDS011;4943;52.550;13.462;2024-01-27T10:28:59;60.60;;;39.57;;
9807;SDS011;4943;52.550;13.462;2024-01-27T10:31:28;61.27;;;40.03;;
9807;SDS011;4943;52.550;13.462;2024-01-27T10:33:57;62.27;;;41.57;;
9807;SDS011;4943;52.550;13.462;2024-01-27T10:36:25;62.00;;;40.03;;
9807;SDS011;4943;52.550;13.462;2024-01-27T10:38:54;62.53;;;40.57;;
9807;SDS011;4943;52.550;13.462;2024-01-27T10:41:23;61.40;;;40.03;;
9807;SDS011;4943;52.550;13.462;2024-01-27T10:43:53;61.73;;;39.80;;
9807;SDS011;4943;52.550;13.462;2024-01-27T10:46:23;63.00;;;40.43;;
9807;SDS011;4943;52.550;13.462;2024-01-27T10:48:53;62.53;;;40.97;;
9807;SDS011;4943;52.550;13.462;2024-01-27T10:51:22;62.70;;;40.43;;
9807;SDS011;4943;52.550;13.462;2024-01-27T10:53:59;62.80;;;40.67;;
9807;SDS011;4943;52.550;13.462;2024-01-27T10:56:30;62.10;;;40.53;;
9807;SDS011;4943;52.550;13.462;2024-01-27T10:58:59;62.90;;;40.47;;
9807;SDS011;4943;52.550;13.462;2024-01-27T11:01:29;61.57;;;40.07;;
9807;SDS011;4943;52.550;13.462;2024-01-27T11:03:59;61.53;;;40.00;;
9807;SDS011;4943;52.550;13.462;2024-01-27T11:06:29;61.53;;;39.57;;
9807;SDS011;4943;52.550;13.462;2024-01-27T11:09:00;61.53;;;40.23;;
9807;SDS011;4943;52.550;13.462;2024-01-27T11:11:33;61.60;;;40.37;;
9807;SDS011;4943;52.550;13.462;2024-01-27T11:14:02;62.13;;;39.87;;
9807;SDS011;4943;52.550;13.462;2024-01-27T11:16:30;61.43;;;39.93;;
9807;SDS011;4943;52.550;13.462;2024-01-27T11:18:58;62.20;;;40.60;;
9807;SDS011;4943;52.550;13.462;2024-01-27T11:21:26;61.20;;;39.50;;
9807;SDS011;4943;52.550;13.462;2024-01-27T11:23:55;61.40;;;40.17;;
9807;SDS011;4943;52.550;13.462;2024-01-27T11:26:24;60.83;;;39.17;;
9807;SDS011;4943;52.550;13.462;2024-01-27T11:28:54;60.70;;;39.33;;
9807;SDS011;4943;52.550;13.462;2024-01-27T11:31:22;61.07;;;39.57;;
9807;SDS011;4943;52.550;13.462;2024-01-27T11:33:50;60.73;;;39.13;;
9807;SDS011;4943;52.550;13.462;2024-01-27T11:36:21;61.40;;;39.80;;
9807;SDS011;4943;52.550;13.462;2024-01-27T11:38:51;61.03;;;39.70;;
9807;SDS011;4943;52.550;13.462;2024-01-27T11:41:24;61.27;;;39.27;;
9807;SDS011;4943;52.550;13.462;2024-01-27T11:43:57;61.40;;;39.40;;
9807;SDS011;4943;52.550;13.462;2024-01-27T11:46:26;61.43;;;39.20;;
9807;SDS011;4943;52.550;13.462;2024-01-27T11:48:55;62.97;;;40.23;;
9807;SDS011;4943;52.550;13.462;2024-01-27T11:51:24;63.30;;;41.10;;
9807;SDS011;4943;52.550;13.462;2024-01-27T11:53:52;62.23;;;39.87;;
9807;SDS011;4943;52.550;13.462;2024-01-27T11:56:20;61.70;;;39.57;;
9807;SDS011;4943;52.550;13.462;2024-01-27T11:58:49;62.40;;;39.90;;
9807;SDS011;4943;52.550;13.462;2024-01-27T12:01:18;64.17;;;40.33;;
9807;SDS011;4943;52.550;13.462;2024-01-27T12:03:46;61.93;;;40.20;;
9807;SDS011;4943;52.550;13.462;2024-01-27T12:06:15;61.93;;;39.07;;
9807;SDS011;4943;52.550;13.462;2024-01-27T12:08:43;62.03;;;39.90;;
9807;SDS011;4943;52.550;13.462;2024-01-27T12:11:14;62.17;;;39.83;;
9807;SDS011;4943;52.550;13.462;2024-01-27T12:13:49;61.47;;;39.07;;
9807;SDS011;4943;52.550;13.462;2024-01-27T12:16:19;61.33;;;38.87;;
9807;SDS011;4943;52.550;13.462;2024-01-27T12:18:51;62.13;;;39.53;;
9807;SDS011;4943;52.550;13.462;2024-01-27T12:21:20;62.47;;;39.83;;
9807;SDS011;4943;52.550;13.462;2024-01-27T12:23:50;62.53;;;39.70;;
9807;SDS011;4943;52.550;13.462;2024-01-27T12:26:20;62.40;;;39.83;;
9807;SDS011;4943;52.550;13.462;2024-01-27T12:28:49;61.83;;;39.00;;
9807;SDS011;4943;52.550;13.462;2024-01-27T12:31:18;62.07;;;39.50;;
9807;SDS011;4943;52.550;13.462;2024-01-27T12:33:48;61.97;;;39.57;;
9807;SDS011;4943;52.550;13.462;2024-01-27T12:36:17;61.93;;;39.57;;
9807;SDS011;4943;52.550;13.462;2024-01-27T12:38:47;61.43;;;39.03;;
9807;SDS011;4943;52.550;13.462;2024-01-27T12:41:21;61.33;;;39.23;;
9807;SDS011;4943;52.550;13.462;2024-01-27T12:43:49;61.27;;;39.13;;
9807;SDS011;4943;52.550;13.462;2024-01-27T12:46:17;61.53;;;39.43;;
9807;SDS011;4943;52.550;13.462;2024-01-27T12:48:47;61.93;;;39.70;;
9807;SDS011;4943;52.550;13.462;2024-01-27T12:51:16;61.67;;;39.57;;
9807;SDS011;4943;52.550;13.462;2024-01-27T12:53:44;61.80;;;39.10;;
9807;SDS011;4943;52.550;13.462;2024-01-27T12:56:12;61.80;;;39.63;;
9807;SDS011;4943;52.550;13.462;2024-01-27T12:58:42;62.20;;;39.97;;
9807;SDS011;4943;52.550;13.462;2024-01-27T13:01:10;61.63;;;39.73;;
9807;SDS011;4943;52.550;13.462;2024-01-27T13:03:40;66.37;;;38.87;;
9807;SDS011;4943;52.550;13.462;2024-01-27T13:06:11;60.90;;;39.07;;
9807;SDS011;4943;52.550;13.462;2024-01-27T13:08:40;60.93;;;39.07;;
9807;SDS011;4943;52.550;13.462;2024-01-27T13:11:09;60.77;;;38.87;;
9807;SDS011;4943;52.550;13.462;2024-01-27T13:13:39;61.67;;;39.77;;
9807;SDS011;4943;52.550;13.462;2024-01-27T13:16:08;62.23;;;40.87;;
9807;SDS011;4943;52.550;13.462;2024-01-27T13:18:36;61.87;;;39.87;;
9807;SDS011;4943;52.550;13.462;2024-01-27T13:21:06;61.47;;;39.23;;
9807;SDS011;4943;52.550;13.462;2024-01-27T13:23:34;61.90;;;39.07;;
9807;SDS011;4943;52.550;13.462;2024-01-27T13:26:03;62.33;;;40.13;;
9807;SDS011;4943;52.550;13.462;2024-01-27T13:28:44;62.23;;;39.33;;
9807;SDS011;4943;52.550;13.462;2024-01-27T13:31:12;62.50;;;40.53;;
9807;SDS011;4943;52.550;13.462;2024-01-27T13:33:40;62.70;;;40.07;;
9807;SDS011;4943;52.550;13.462;2024-01-27T13:36:10;62.23;;;40.33;;
9807;SDS011;4943;52.550;13.462;2024-01-27T13:38:38;60.83;;;39.10;;
9807;SDS011;4943;52.550;13.462;2024-01-27T13:41:06;62.30;;;39.73;;
9807;SDS011;4943;52.550;13.462;2024-01-27T13:43:34;61.40;;;40.17;;
9807;SDS011;4943;52.550;13.462;2024-01-27T13:46:02;61.23;;;39.60;;
9807;SDS011;4943;52.550;13.462;2024-01-27T13:48:30;61.53;;;40.43;;
9807;SDS011;4943;52.550;13.462;2024-01-27T13:50:59;61.73;;;39.27;;
9807;SDS011;4943;52.550;13.462;2024-01-27T13:53:29;62.10;;;39.83;;
9807;SDS011;4943;52.550;13.462;2024-01-27T13:56:11;62.43;;;39.93;;
9807;SDS011;4943;52.550;13.462;2024-01-27T13:58:41;62.23;;;40.27;;
9807;SDS011;4943;52.550;13.462;2024-01-27T14:01:09;62.17;;;40.17;;
9807;SDS011;4943;52.550;13.462;2024-01-27T14:03:38;61.47;;;39.63;;
9807;SDS011;4943;52.550;13.462;2024-01-27T14:06:06;61.63;;;39.93;;
9807;SDS011;4943;52.550;13.462;2024-01-27T14:08:41;61.77;;;40.50;;
9807;SDS011;4943;52.550;13.462;2024-01-27T14:11:09;60.80;;;39.30;;
9807;SDS011;4943;52.550;13.462;2024-01-27T14:13:38;60.60;;;39.07;;
9807;SDS011;4943;52.550;13.462;2024-01-27T14:16:07;62.30;;;40.43;;
9807;SDS011;4943;52.550;13.462;2024-01-27T14:18:35;62.40;;;40.60;;
9807;SDS011;4943;52.550;13.462;2024-01-27T14:21:04;61.47;;;39.97;;
9807;SDS011;4943;52.550;13.462;2024-01-27T14:23:32;61.03;;;40.03;;
9807;SDS011;4943;52.550;13.462;2024-01-27T14:26:01;61.00;;;39.63;;
9807;SDS011;4943;52.550;13.462;2024-01-27T14:28:29;60.47;;;39.43;;
9807;SDS011;4943;52.550;13.462;2024-01-27T14:30:58;60.67;;;39.57;;
9807;SDS011;4943;52.550;13.462;2024-01-27T14:33:26;59.90;;;38.93;;
9807;SDS011;4943;52.550;13.462;2024-01-27T14:35:54;60.27;;;40.10;;
9807;SDS011;4943;52.550;13.462;2024-01-27T14:38:22;59.97;;;39.20;;
9807;SDS011;4943;52.550;13.462;2024-01-27T14:40:50;59.67;;;39.07;;
9807;SDS011;4943;52.550;13.462;2024-01-27T14:43:20;59.27;;;39.00;;